Time;durP1;ratioP1;P1;durP2;ratioP2;P2;SDS_P1;SDS_P2;PMS_P1;PMS_P2;Temp;Humidity;BMP_temperature;BMP_pressure;BME280_temperature;BME280_humidity;BME280_pressure;Samples;Min_cycle;Max_cycle;Signal;HPM_P1;HPM_P2
2023/08/28 00:01:04;;;;;;;3.70;2.50;;;18.30;63.50;;;;;;5016242;28;20521;-67
2023/08/28 00:03:30;;;;;;;3.20;2.75;;;18.30;63.60;;;;;;5017841;28;20032;-73
2023/08/28 00:05:56;;;;;;;3.40;2.53;;;18.30;63.70;;;;;;5018929;28;20127;-72
2023/08/28 00:08:22;;;;;;;5.18;2.70;;;18.30;63.70;;;;;;5012964;28;20536;-69
2023/08/28 00:10:48;;;;;;;3.30;2.15;;;18.30;63.90;;;;;;5015910;28;20128;-68
2023/08/28 00:13:14;;;;;;;3.80;2.15;;;18.30;63.90;;;;;;5006873;28;20108;-70
2023/08/28 00:15:40;;;;;;;4.20;2.80;;;18.30;64.00;;;;;;5015297;28;20034;-71
2023/08/28 00:18:06;;;;;;;3.95;2.25;;;18.30;64.00;;;;;;5015573;28;20048;-68
2023/08/28 00:20:32;;;;;;;3.63;2.35;;;18.30;64.10;;;;;;5009299;28;20500;-69
2023/08/28 00:22:58;;;;;;;3.20;2.25;;;18.20;64.00;;;;;;5015292;28;20038;-69
2023/08/28 00:25:24;;;;;;;3.03;2.35;;;18.20;64.10;;;;;;5011584;28;20055;-73
2023/08/28 00:27:50;;;;;;;2.47;1.92;;;18.20;64.20;;;;;;5012573;28;20346;-69
2023/08/28 00:30:17;;;;;;;2.70;2.35;;;18.20;64.80;;;;;;5009575;28;20046;-68
2023/08/28 00:32:43;;;;;;;3.28;2.25;;;18.20;64.40;;;;;;5014038;28;20032;-69
2023/08/28 00:35:09;;;;;;;2.22;2.00;;;18.20;64.40;;;;;;5006220;28;20041;-70
2023/08/28 00:37:36;;;;;;;2.10;1.80;;;18.20;64.50;;;;;;5015765;28;20037;-68
2023/08/28 00:40:03;;;;;;;1.90;1.70;;;18.20;64.60;;;;;;5012698;28;20041;-72
2023/08/28 00:42:29;;;;;;;6.40;2.45;;;18.20;64.70;;;;;;5005611;28;20021;-70
2023/08/28 00:44:55;;;;;;;2.47;1.92;;;18.20;64.80;;;;;;5013382;28;20038;-72
2023/08/28 00:47:21;;;;;;;3.53;2.28;;;18.20;64.90;;;;;;5015844;28;20056;-70
2023/08/28 00:49:47;;;;;;;2.92;2.10;;;18.20;65.00;;;;;;5017040;28;20110;-69
2023/08/28 00:52:13;;;;;;;4.20;2.28;;;18.10;64.90;;;;;;5019131;28;20436;-72
2023/08/28 00:54:41;;;;;;;2.75;2.17;;;18.10;65.00;;;;;;5012278;28;20033;-72
2023/08/28 00:57:09;;;;;;;3.65;2.25;;;18.10;65.10;;;;;;5017041;28;20033;-68
2023/08/28 00:59:35;;;;;;;1.55;1.45;;;18.10;65.20;;;;;;5012011;28;20044;-74
2023/08/28 01:02:03;;;;;;;2.22;1.90;;;18.10;65.30;;;;;;5015564;28;20029;-77
2023/08/28 01:04:31;;;;;;;2.08;1.58;;;18.10;65.40;;;;;;5010033;28;20581;-73
2023/08/28 01:07:11;;;;;;;2.35;2.03;;;18.10;65.50;;;;;;5013147;28;20568;-70
2023/08/28 01:10:06;;;;;;;2.85;1.75;;;18.10;65.70;;;;;;5013823;28;20038;-72
2023/08/28 01:13:04;;;;;;;3.38;2.00;;;18.10;65.70;;;;;;5009626;28;20235;-69
2023/08/28 01:15:32;;;;;;;2.38;2.05;;;18.10;65.80;;;;;;4988455;28;20030;-71
2023/08/28 01:18:01;;;;;;;1.45;1.35;;;18.10;65.70;;;;;;5014323;28;20033;-69
2023/08/28 01:20:30;;;;;;;2.38;1.70;;;18.10;65.90;;;;;;5011904;28;20029;-70
2023/08/28 01:23:07;;;;;;;2.05;1.40;;;18.10;66.00;;;;;;5015904;28;20029;-69
2023/08/28 01:25:35;;;;;;;1.88;1.45;;;18.10;66.10;;;;;;5008896;28;20018;-71
2023/08/28 01:28:02;;;;;;;1.92;1.70;;;18.10;66.10;;;;;;5011438;28;20132;-70
2023/08/28 01:30:28;;;;;;;2.50;1.90;;;18.10;66.20;;;;;;5011516;28;20649;-68
2023/08/28 01:32:55;;;;;;;3.15;2.08;;;18.10;66.30;;;;;;5007591;28;20049;-69
2023/08/28 01:35:30;;;;;;;2.22;1.67;;;18.10;66.40;;;;;;5014054;28;20040;-69
2023/08/28 01:38:02;;;;;;;2.35;1.90;;;18.00;66.30;;;;;;5014214;28;20367;-67
2023/08/28 01:40:36;;;;;;;2.33;1.95;;;18.00;66.40;;;;;;5007559;28;20033;-73
2023/08/28 01:43:08;;;;;;;2.05;1.70;;;18.00;66.40;;;;;;5007397;28;20033;-72
2023/08/28 01:45:37;;;;;;;1.77;1.58;;;18.00;66.50;;;;;;5007522;28;20064;-72
2023/08/28 01:48:05;;;;;;;2.22;1.92;;;18.00;66.60;;;;;;5016585;28;20092;-72
2023/08/28 01:50:31;;;;;;;1.88;1.65;;;18.00;66.70;;;;;;5020259;28;20061;-69
2023/08/28 01:52:57;;;;;;;2.42;2.00;;;18.00;66.80;;;;;;5010475;28;20048;-75
2023/08/28 01:55:53;;;;;;;3.60;2.35;;;18.00;66.90;;;;;;5017778;28;20022;-71
2023/08/28 01:58:19;;;;;;;1.98;1.77;;;18.00;67.10;;;;;;5013303;28;21213;-71
2023/08/28 02:00:45;;;;;;;2.35;1.67;;;18.00;67.00;;;;;;5016985;28;20396;-68
2023/08/28 02:03:11;;;;;;;2.30;2.10;;;18.00;67.10;;;;;;5017103;28;20139;-68
2023/08/28 02:05:37;;;;;;;3.85;2.75;;;18.00;67.20;;;;;;5018100;28;20501;-72
2023/08/28 02:08:05;;;;;;;2.33;1.83;;;18.00;67.30;;;;;;5014448;28;20141;-70
2023/08/28 02:10:31;;;;;;;2.67;2.40;;;18.00;67.50;;;;;;5013462;28;20040;-67
2023/08/28 02:12:57;;;;;;;4.10;1.95;;;18.00;67.50;;;;;;5004685;28;20033;-72
2023/08/28 02:15:24;;;;;;;3.08;2.58;;;18.00;67.60;;;;;;5021354;28;20033;-73
2023/08/28 02:17:50;;;;;;;2.55;2.13;;;18.00;67.70;;;;;;5017850;28;20343;-71
2023/08/28 02:20:16;;;;;;;2.35;2.10;;;18.00;67.70;;;;;;5014815;28;20026;-71
2023/08/28 02:22:42;;;;;;;2.05;1.50;;;17.90;67.60;;;;;;5015676;28;20370;-73
2023/08/28 02:25:08;;;;;;;2.92;1.75;;;18.00;67.90;;;;;;5020709;28;20566;-72
2023/08/28 02:27:34;;;;;;;2.22;1.70;;;17.90;67.70;;;;;;5021048;28;20524;-70
2023/08/28 02:30:00;;;;;;;2.63;2.42;;;18.00;67.90;;;;;;5018767;28;20108;-69
2023/08/28 02:32:27;;;;;;;3.00;1.60;;;17.90;67.90;;;;;;5014569;28;20033;-73
2023/08/28 02:34:53;;;;;;;2.72;2.20;;;17.90;67.90;;;;;;5020984;28;20496;-71
2023/08/28 02:37:19;;;;;;;2.53;1.73;;;17.90;67.90;;;;;;5024372;28;20032;-72
2023/08/28 02:39:45;;;;;;;3.55;1.77;;;17.90;68.00;;;;;;5022194;28;20045;-73
2023/08/28 02:42:11;;;;;;;3.08;2.28;;;17.90;68.10;;;;;;5019782;28;20026;-74
2023/08/28 02:44:37;;;;;;;3.22;1.98;;;17.90;68.20;;;;;;5022438;28;20285;-71
2023/08/28 02:47:06;;;;;;;2.85;2.53;;;17.90;68.30;;;;;;5020029;28;20124;-72
2023/08/28 02:49:32;;;;;;;3.35;2.50;;;17.90;68.30;;;;;;5012166;28;20040;-72
2023/08/28 02:51:58;;;;;;;3.75;2.22;;;17.90;68.40;;;;;;5016125;28;20494;-74
2023/08/28 02:54:24;;;;;;;3.40;2.13;;;17.90;68.40;;;;;;5022782;28;20044;-78
2023/08/28 02:56:51;;;;;;;2.40;2.20;;;17.80;68.30;;;;;;5020871;28;20496;-74
2023/08/28 02:59:18;;;;;;;2.28;2.08;;;17.80;68.40;;;;;;5020670;28;20173;-71
2023/08/28 03:01:44;;;;;;;3.28;2.50;;;17.80;68.40;;;;;;5021446;28;20029;-73
2023/08/28 03:04:10;;;;;;;4.28;2.50;;;17.80;68.50;;;;;;5004493;28;20385;-69
2023/08/28 03:06:37;;;;;;;4.63;1.83;;;17.80;68.50;;;;;;5020494;28;20044;-71
2023/08/28 03:09:05;;;;;;;2.13;1.92;;;17.80;68.70;;;;;;5021704;28;20060;-69
2023/08/28 03:11:31;;;;;;;2.55;2.35;;;17.80;68.70;;;;;;5023689;28;20044;-68
2023/08/28 03:13:57;;;;;;;5.90;3.05;;;17.80;68.80;;;;;;5018470;28;20041;-71
2023/08/28 03:16:23;;;;;;;2.35;2.15;;;17.80;68.80;;;;;;5018189;28;20033;-71
2023/08/28 03:18:49;;;;;;;3.15;2.10;;;17.70;68.70;;;;;;5022732;28;20044;-67
2023/08/28 03:21:15;;;;;;;2.30;1.95;;;17.70;68.70;;;;;;5020427;28;20026;-70
2023/08/28 03:23:41;;;;;;;3.30;2.40;;;17.70;68.80;;;;;;5016849;28;20043;-72
2023/08/28 03:26:07;;;;;;;2.75;2.47;;;17.70;68.90;;;;;;5019985;28;20536;-68
2023/08/28 03:28:34;;;;;;;3.00;1.90;;;17.70;69.00;;;;;;5020893;28;20037;-68
2023/08/28 03:31:01;;;;;;;2.60;2.40;;;17.70;69.10;;;;;;5023182;28;20041;-67
2023/08/28 03:33:28;;;;;;;2.53;2.13;;;17.70;69.10;;;;;;5018067;28;20111;-72
2023/08/28 03:35:54;;;;;;;3.10;2.10;;;17.70;69.10;;;;;;5018588;28;20048;-70
2023/08/28 03:38:20;;;;;;;2.88;2.28;;;17.70;69.20;;;;;;5022429;28;20157;-70
2023/08/28 03:40:46;;;;;;;3.25;1.83;;;17.70;69.20;;;;;;5016310;28;20057;-69
2023/08/28 03:43:13;;;;;;;2.72;2.28;;;17.70;69.30;;;;;;5020757;28;20088;-74
2023/08/28 03:45:40;;;;;;;2.78;2.17;;;17.70;69.30;;;;;;5017927;28;20038;-74
2023/08/28 03:48:06;;;;;;;2.97;2.22;;;17.70;69.90;;;;;;5014304;28;20040;-69
2023/08/28 03:50:33;;;;;;;2.88;2.17;;;17.70;69.40;;;;;;5018949;28;20056;-69
2023/08/28 03:53:00;;;;;;;1.88;1.65;;;17.70;69.40;;;;;;5017791;28;20084;-72
2023/08/28 03:55:29;;;;;;;2.65;2.13;;;17.60;69.30;;;;;;5013943;28;20033;-71
2023/08/28 03:57:57;;;;;;;2.95;2.05;;;17.70;69.60;;;;;;5020928;28;20113;-70
2023/08/28 04:00:25;;;;;;;2.72;2.45;;;17.70;69.60;;;;;;5019985;28;20044;-71
2023/08/28 04:02:51;;;;;;;2.92;2.03;;;17.60;69.40;;;;;;5015217;28;20674;-72
2023/08/28 04:05:17;;;;;;;2.47;1.90;;;17.60;69.50;;;;;;5023592;28;20059;-69
2023/08/28 04:07:44;;;;;;;2.25;1.80;;;17.70;69.70;;;;;;5023006;28;20128;-69
2023/08/28 04:10:11;;;;;;;3.70;2.05;;;17.60;69.60;;;;;;5034097;28;20372;-70
2023/08/28 04:12:37;;;;;;;1.90;1.73;;;17.60;69.60;;;;;;5030125;28;20207;-67
2023/08/28 04:15:07;;;;;;;2.47;2.20;;;17.60;70.20;;;;;;5028553;28;20089;-69
2023/08/28 04:17:34;;;;;;;2.63;1.73;;;17.60;69.70;;;;;;5027263;28;20401;-70
2023/08/28 04:20:16;;;;;;;2.22;2.03;;;17.50;69.60;;;;;;5022006;28;20033;-74
2023/08/28 04:22:43;;;;;;;2.47;2.10;;;17.50;69.70;;;;;;5018204;28;20401;-75
2023/08/28 04:25:10;;;;;;;1.90;1.80;;;17.50;69.70;;;;;;5018840;28;20557;-68
2023/08/28 04:27:38;;;;;;;2.00;1.80;;;17.50;69.70;;;;;;5016567;28;20056;-72
2023/08/28 04:30:05;;;;;;;1.85;1.75;;;17.50;69.80;;;;;;5013725;28;20033;-72
2023/08/28 04:32:31;;;;;;;1.77;1.63;;;17.50;69.80;;;;;;5016663;28;20037;-69
2023/08/28 04:34:58;;;;;;;1.52;1.42;;;17.50;69.80;;;;;;5019677;28;20484;-71
2023/08/28 04:37:25;;;;;;;2.92;1.60;;;17.40;69.70;;;;;;5018685;28;20496;-68
2023/08/28 04:39:51;;;;;;;2.03;1.65;;;17.40;70.30;;;;;;5016307;28;20038;-73
2023/08/28 04:42:18;;;;;;;1.40;1.30;;;17.40;69.70;;;;;;5013949;28;20021;-67
2023/08/28 04:44:44;;;;;;;1.50;1.30;;;17.50;69.90;;;;;;5022034;28;20146;-67
2023/08/28 04:47:12;;;;;;;2.17;1.48;;;17.40;69.70;;;;;;5017053;28;20021;-68
2023/08/28 04:49:38;;;;;;;3.33;1.50;;;17.40;69.70;;;;;;5014142;28;20043;-69
2023/08/28 04:52:05;;;;;;;1.63;1.52;;;17.40;69.70;;;;;;5018849;28;20045;-72
2023/08/28 04:54:32;;;;;;;2.72;1.42;;;17.40;69.70;;;;;;5017007;28;20033;-66
2023/08/28 04:56:58;;;;;;;1.50;1.40;;;17.40;69.70;;;;;;5003283;28;20505;-66
2023/08/28 04:59:24;;;;;;;1.05;0.95;;;17.30;69.60;;;;;;5018424;28;20045;-71
2023/08/28 05:01:50;;;;;;;1.45;1.00;;;17.30;69.60;;;;;;5017947;28;20639;-72
2023/08/28 05:04:16;;;;;;;0.98;0.90;;;17.30;69.60;;;;;;5016863;28;20482;-73
2023/08/28 05:06:42;;;;;;;0.68;0.68;;;17.30;69.60;;;;;;5017705;28;20045;-74
2023/08/28 05:09:08;;;;;;;1.92;1.10;;;17.30;69.60;;;;;;5012298;28;20030;-73
2023/08/28 05:11:36;;;;;;;1.02;0.80;;;17.20;69.50;;;;;;5006676;28;20066;-72
2023/08/28 05:14:02;;;;;;;1.52;0.75;;;17.20;70.00;;;;;;5017772;28;20564;-71
2023/08/28 05:16:28;;;;;;;1.95;0.98;;;17.20;69.50;;;;;;5009864;28;20088;-73
2023/08/28 05:18:54;;;;;;;0.57;0.57;;;17.20;69.60;;;;;;5017291;28;20507;-73
2023/08/28 05:21:21;;;;;;;0.88;0.80;;;17.20;69.50;;;;;;5016664;28;20106;-71
2023/08/28 05:23:47;;;;;;;1.40;0.60;;;17.10;69.40;;;;;;5011892;28;20041;-73
2023/08/28 05:26:14;;;;;;;0.60;0.60;;;17.10;69.40;;;;;;5016190;28;20199;-74
2023/08/28 05:28:41;;;;;;;0.70;0.60;;;17.10;69.40;;;;;;5018425;28;20029;-73
2023/08/28 05:31:07;;;;;;;1.23;0.80;;;17.00;69.20;;;;;;5009153;28;20044;-75
2023/08/28 05:33:36;;;;;;;0.70;0.70;;;17.00;69.20;;;;;;5013104;28;20659;-71
2023/08/28 05:36:02;;;;;;;0.90;0.50;;;17.00;69.30;;;;;;5015657;28;20095;-75
2023/08/28 05:38:30;;;;;;;0.80;0.50;;;16.90;69.10;;;;;;5015834;28;20091;-71
2023/08/28 05:40:56;;;;;;;0.38;0.38;;;16.90;69.20;;;;;;5015877;28;20029;-73
2023/08/28 05:43:22;;;;;;;0.38;0.38;;;16.90;69.20;;;;;;5017716;28;20044;-72
2023/08/28 05:45:49;;;;;;;0.40;0.40;;;16.90;69.20;;;;;;5015039;28;20132;-72
2023/08/28 05:48:15;;;;;;;0.60;0.47;;;16.90;69.30;;;;;;5015493;28;20115;-69
2023/08/28 05:50:48;;;;;;;0.60;0.30;;;16.80;69.10;;;;;;5010982;28;20145;-71
2023/08/28 05:53:14;;;;;;;0.82;0.32;;;16.80;69.10;;;;;;5018526;28;20030;-68
2023/08/28 05:55:41;;;;;;;0.50;0.50;;;16.80;69.10;;;;;;5008620;28;20045;-74
2023/08/28 05:58:08;;;;;;;0.73;0.60;;;16.80;69.10;;;;;;5017415;28;20065;-70
2023/08/28 06:00:34;;;;;;;1.02;0.50;;;16.80;69.10;;;;;;5013783;28;20037;-74
2023/08/28 06:03:00;;;;;;;0.40;0.38;;;16.80;69.10;;;;;;5002853;28;20040;-67
2023/08/28 06:05:28;;;;;;;0.60;0.35;;;16.70;68.90;;;;;;5010326;28;20061;-69
2023/08/28 06:07:54;;;;;;;0.43;0.43;;;16.70;68.90;;;;;;5015504;28;20037;-72
2023/08/28 06:10:21;;;;;;;0.63;0.63;;;16.70;68.90;;;;;;5014721;28;20041;-68
2023/08/28 06:12:49;;;;;;;0.60;0.43;;;16.70;68.90;;;;;;5014326;28;20079;-68
2023/08/28 06:15:19;;;;;;;1.17;0.35;;;16.70;68.90;;;;;;5015076;28;20064;-68
2023/08/28 06:17:46;;;;;;;0.60;0.43;;;16.70;68.90;;;;;;5009022;28;20200;-69
2023/08/28 06:20:13;;;;;;;0.50;0.50;;;16.70;68.90;;;;;;5009751;28;20414;-68
2023/08/28 06:22:43;;;;;;;1.50;0.50;;;16.70;68.90;;;;;;5011800;28;20539;-67
2023/08/28 06:25:09;;;;;;;1.45;0.38;;;16.70;68.80;;;;;;5001963;28;20065;-75
2023/08/28 06:27:37;;;;;;;0.52;0.50;;;16.80;68.90;;;;;;5009075;28;20406;-66
2023/08/28 06:30:04;;;;;;;0.52;0.47;;;16.90;69.00;;;;;;5012641;28;20053;-67
2023/08/28 06:32:30;;;;;;;1.52;0.60;;;16.90;68.90;;;;;;5011369;28;20135;-68
2023/08/28 06:34:57;;;;;;;0.80;0.70;;;17.00;68.90;;;;;;5018243;28;20033;-68
2023/08/28 06:37:25;;;;;;;0.35;0.30;;;17.10;68.90;;;;;;5010223;28;20025;-67
2023/08/28 06:39:52;;;;;;;0.90;0.60;;;17.30;69.20;;;;;;5007499;28;20041;-69
2023/08/28 06:42:19;;;;;;;0.68;0.68;;;17.40;69.10;;;;;;5012832;28;20029;-68
2023/08/28 06:44:45;;;;;;;0.40;0.40;;;17.60;69.20;;;;;;5013518;28;20042;-71
2023/08/28 06:47:13;;;;;;;0.70;0.70;;;17.80;69.20;;;;;;5011042;28;20064;-69
2023/08/28 06:49:39;;;;;;;0.50;0.50;;;18.00;69.00;;;;;;5007762;28;20068;-70
2023/08/28 06:52:06;;;;;;;1.15;0.93;;;18.30;69.00;;;;;;5010738;28;20045;-71
2023/08/28 06:54:33;;;;;;;1.33;0.75;;;18.50;68.70;;;;;;5011281;28;20037;-72
2023/08/28 06:56:59;;;;;;;1.70;0.50;;;18.90;68.70;;;;;;5012881;28;20359;-71
2023/08/28 06:59:26;;;;;;;0.60;0.60;;;19.20;68.30;;;;;;5011817;28;20342;-72
2023/08/28 07:01:52;;;;;;;0.47;0.43;;;19.60;68.10;;;;;;5016085;28;20045;-70
2023/08/28 07:04:19;;;;;;;0.40;0.40;;;20.00;67.80;;;;;;5009188;28;20469;-71
2023/08/28 07:06:46;;;;;;;1.23;0.55;;;20.40;67.40;;;;;;5011061;28;20110;-74
2023/08/28 07:09:12;;;;;;;0.60;0.40;;;20.80;67.10;;;;;;5011028;28;20091;-71
2023/08/28 07:11:39;;;;;;;0.22;0.22;;;21.20;66.80;;;;;;5011873;28;20253;-71
2023/08/28 07:14:06;;;;;;;1.05;0.60;;;21.40;66.20;;;;;;5008458;28;20130;-73
2023/08/28 07:16:33;;;;;;;0.82;0.43;;;21.40;65.90;;;;;;5014232;28;20107;-72
2023/08/28 07:19:00;;;;;;;0.50;0.32;;;21.30;65.70;;;;;;5007005;28;20029;-72
2023/08/28 07:21:26;;;;;;;0.52;0.40;;;21.30;65.80;;;;;;5013346;28;20083;-73
2023/08/28 07:23:53;;;;;;;0.50;0.40;;;21.40;66.00;;;;;;5018131;28;20738;-74
2023/08/28 07:26:20;;;;;;;1.55;0.60;;;21.50;66.00;;;;;;5010972;28;20399;-74
2023/08/28 07:28:48;;;;;;;1.00;0.50;;;21.60;66.00;;;;;;5017924;28;20029;-72
2023/08/28 07:31:18;;;;;;;1.90;1.15;;;21.60;66.00;;;;;;5003960;28;20072;-75
2023/08/28 07:33:44;;;;;;;2.92;0.80;;;21.50;65.80;;;;;;5011377;28;20053;-75
2023/08/28 07:36:11;;;;;;;3.53;1.40;;;21.50;65.80;;;;;;5011893;28;20187;-72
2023/08/28 07:38:37;;;;;;;1.80;0.75;;;21.50;66.00;;;;;;5011642;28;20113;-71
2023/08/28 07:41:03;;;;;;;3.25;1.40;;;21.40;66.00;;;;;;5014872;28;20033;-74
2023/08/28 07:43:29;;;;;;;3.40;1.65;;;21.30;66.00;;;;;;5010885;28;20030;-75
2023/08/28 07:45:55;;;;;;;0.80;0.80;;;21.20;66.10;;;;;;5017382;28;20033;-73
2023/08/28 07:48:23;;;;;;;3.50;1.00;;;21.30;66.30;;;;;;5007723;28;20414;-75
2023/08/28 07:50:52;;;;;;;4.43;1.77;;;21.20;66.10;;;;;;5017090;28;20045;-74
2023/08/28 07:53:18;;;;;;;1.05;0.80;;;21.30;66.10;;;;;;5008979;28;20091;-74
2023/08/28 07:55:45;;;;;;;2.00;0.77;;;21.40;66.10;;;;;;5014333;28;20045;-71
2023/08/28 07:58:11;;;;;;;2.35;0.93;;;21.50;66.00;;;;;;5011024;28;20132;-71
2023/08/28 08:00:42;;;;;;;3.15;1.10;;;21.60;65.80;;;;;;5007236;28;20124;-71
2023/08/28 08:03:08;;;;;;;3.55;0.75;;;21.70;65.80;;;;;;5004416;28;20140;-74
2023/08/28 08:05:35;;;;;;;2.55;0.80;;;21.70;65.70;;;;;;5011034;28;20276;-71
2023/08/28 08:08:01;;;;;;;3.33;0.63;;;21.70;65.60;;;;;;5011163;28;20128;-73
2023/08/28 08:10:28;;;;;;;2.35;0.75;;;21.70;65.70;;;;;;5006907;28;20819;-71
2023/08/28 08:12:54;;;;;;;1.20;0.70;;;21.60;65.60;;;;;;5011485;28;20168;-71
2023/08/28 08:15:21;;;;;;;1.83;0.60;;;21.50;65.40;;;;;;5003641;28;20075;-75
2023/08/28 08:17:47;;;;;;;1.42;0.63;;;21.50;65.50;;;;;;5010257;28;20485;-73
2023/08/28 08:20:15;;;;;;;2.25;0.57;;;21.50;65.60;;;;;;5012779;28;20651;-72
2023/08/28 08:22:46;;;;;;;2.78;0.73;;;21.50;65.60;;;;;;5018378;28;20038;-71
2023/08/28 08:25:13;;;;;;;1.42;0.85;;;21.50;65.60;;;;;;5023019;28;20060;-72
2023/08/28 08:27:44;;;;;;;1.55;0.80;;;21.40;65.60;;;;;;5019663;28;20100;-75
2023/08/28 08:30:13;;;;;;;2.03;0.60;;;21.40;65.50;;;;;;5016280;28;20042;-73
2023/08/28 08:32:39;;;;;;;0.47;0.47;;;21.40;65.40;;;;;;5013488;28;20030;-74
2023/08/28 08:35:06;;;;;;;1.00;0.40;;;21.40;65.40;;;;;;5004686;28;20038;-74
2023/08/28 08:37:33;;;;;;;1.45;0.50;;;21.40;65.30;;;;;;5012033;28;20037;-73
2023/08/28 08:40:03;;;;;;;0.40;0.40;;;21.40;65.30;;;;;;5001287;28;20053;-75
2023/08/28 08:42:29;;;;;;;1.98;0.30;;;21.40;65.20;;;;;;5009773;28;20547;-74
2023/08/28 08:44:56;;;;;;;1.02;0.50;;;21.40;65.20;;;;;;5016659;28;20061;-74
2023/08/28 08:47:25;;;;;;;0.80;0.45;;;21.40;65.10;;;;;;5000597;28;20525;-72
2023/08/28 08:49:55;;;;;;;0.65;0.30;;;21.40;65.00;;;;;;5010947;28;20060;-72
2023/08/28 08:52:22;;;;;;;0.82;0.55;;;21.40;64.80;;;;;;5008785;28;20247;-74
2023/08/28 08:54:55;;;;;;;1.02;0.30;;;21.40;64.70;;;;;;5006573;28;20128;-74
2023/08/28 08:57:35;;;;;;;0.73;0.50;;;21.40;64.50;;;;;;5013829;28;20093;-72
2023/08/28 09:00:15;;;;;;;2.17;0.60;;;21.50;64.60;;;;;;5011294;28;20037;-75
2023/08/28 09:02:47;;;;;;;5.63;0.50;;;21.50;64.50;;;;;;5005655;28;20129;-71
2023/08/28 09:05:17;;;;;;;1.17;0.52;;;21.60;64.60;;;;;;5008865;28;20466;-73
2023/08/28 09:07:45;;;;;;;2.65;0.57;;;21.70;64.70;;;;;;5010030;28;20102;-72
2023/08/28 09:10:14;;;;;;;1.85;0.40;;;21.80;64.80;;;;;;5007892;28;20494;-73
2023/08/28 09:12:42;;;;;;;0.77;0.50;;;21.90;64.80;;;;;;5012569;28;20041;-75
2023/08/28 09:15:10;;;;;;;1.30;0.50;;;22.00;64.60;;;;;;5006546;28;20493;-73
2023/08/28 09:17:39;;;;;;;0.63;0.30;;;22.20;64.60;;;;;;5003672;28;20315;-75
2023/08/28 09:20:13;;;;;;;1.38;0.50;;;22.30;64.30;;;;;;5006684;28;20040;-74
2023/08/28 09:22:48;;;;;;;0.88;0.40;;;22.40;64.10;;;;;;5005937;28;20076;-72
2023/08/28 09:25:19;;;;;;;2.95;0.50;;;22.50;63.90;;;;;;5009924;28;20490;-73
2023/08/28 09:27:46;;;;;;;0.77;0.45;;;22.70;63.70;;;;;;5012516;28;20158;-74
2023/08/28 09:30:37;;;;;;;0.60;0.50;;;22.90;63.60;;;;;;5013511;28;20168;-73
2023/08/28 09:33:06;;;;;;;1.85;0.50;;;23.00;63.20;;;;;;5012783;28;20120;-72
2023/08/28 09:35:39;;;;;;;1.02;0.40;;;23.10;63.20;;;;;;5010485;28;20040;-72
2023/08/28 09:38:06;;;;;;;0.88;0.47;;;23.20;62.80;;;;;;5007111;28;20037;-74
2023/08/28 09:40:35;;;;;;;1.48;0.40;;;23.20;62.60;;;;;;5006546;28;20032;-73
2023/08/28 09:43:12;;;;;;;1.60;0.30;;;23.40;62.60;;;;;;5008856;28;20037;-73
2023/08/28 09:45:40;;;;;;;1.08;0.45;;;23.40;62.30;;;;;;5004764;28;20544;-74
2023/08/28 09:48:07;;;;;;;0.35;0.35;;;23.40;62.10;;;;;;4996123;28;20062;-74
2023/08/28 09:50:37;;;;;;;0.38;0.30;;;23.40;62.50;;;;;;5007474;28;20045;-74
2023/08/28 09:53:10;;;;;;;0.40;0.40;;;23.50;61.70;;;;;;5014211;28;20073;-74
2023/08/28 09:55:48;;;;;;;1.58;0.30;;;23.70;61.70;;;;;;5008807;28;20041;-73
2023/08/28 09:58:15;;;;;;;0.40;0.20;;;23.80;61.40;;;;;;5003657;28;20053;-74
2023/08/28 10:00:42;;;;;;;1.77;0.30;;;23.90;61.20;;;;;;5011498;28;20064;-73
2023/08/28 10:03:13;;;;;;;0.50;0.45;;;24.00;61.00;;;;;;5006901;28;20053;-73
2023/08/28 10:05:41;;;;;;;1.52;0.30;;;24.10;61.10;;;;;;5004675;28;20121;-73
2023/08/28 10:08:09;;;;;;;0.25;0.25;;;24.10;60.70;;;;;;5009501;28;20062;-74
2023/08/28 10:10:36;;;;;;;0.98;0.68;;;24.10;60.50;;;;;;4997551;28;20048;-74
2023/08/28 10:13:13;;;;;;;0.50;0.30;;;24.20;60.50;;;;;;5004773;28;20108;-73
2023/08/28 10:15:46;;;;;;;2.37;0.50;;;24.20;60.30;;;;;;4996738;28;20037;-73
2023/08/28 10:18:29;;;;;;;1.75;0.65;;;24.30;60.40;;;;;;5000797;28;20287;-74
2023/08/28 10:20:56;;;;;;;0.35;0.35;;;24.40;60.40;;;;;;5004124;28;20038;-74
2023/08/28 10:23:25;;;;;;;1.33;0.30;;;24.50;60.40;;;;;;5015161;28;20110;-74
2023/08/28 10:25:55;;;;;;;1.40;0.35;;;24.50;60.20;;;;;;4998929;28;20120;-74
2023/08/28 10:28:24;;;;;;;1.75;0.30;;;24.60;60.20;;;;;;5009640;28;20100;-74
2023/08/28 10:30:51;;;;;;;0.35;0.20;;;24.60;60.60;;;;;;5004812;28;20041;-73
2023/08/28 10:33:25;;;;;;;0.30;0.30;;;24.70;60.10;;;;;;4981683;28;20144;-74
2023/08/28 10:36:02;;;;;;;0.45;0.40;;;24.80;60.00;;;;;;5010392;28;20045;-74
2023/08/28 10:38:38;;;;;;;0.95;0.22;;;24.90;59.70;;;;;;4996578;28;20065;-74
2023/08/28 10:41:05;;;;;;;0.30;0.30;;;25.10;59.70;;;;;;5006323;28;20041;-73
2023/08/28 10:43:32;;;;;;;1.25;0.60;;;25.20;59.30;;;;;;5010579;28;20040;-74
2023/08/28 10:46:00;;;;;;;0.90;0.32;;;25.20;59.10;;;;;;5010066;28;20048;-74
2023/08/28 10:48:28;;;;;;;0.40;0.30;;;25.10;59.50;;;;;;5009746;28;20485;-73
2023/08/28 10:50:58;;;;;;;0.30;0.30;;;25.00;58.90;;;;;;5008841;28;20042;-75
2023/08/28 10:53:26;;;;;;;0.30;0.30;;;24.90;58.70;;;;;;5012284;28;20056;-75
2023/08/28 10:55:57;;;;;;;0.28;0.28;;;24.80;58.70;;;;;;5009478;28;20021;-75
2023/08/28 10:58:24;;;;;;;0.45;0.30;;;24.70;58.60;;;;;;5011461;28;20038;-75
2023/08/28 11:01:11;;;;;;;0.70;0.45;;;24.60;58.60;;;;;;5008302;28;20022;-74
2023/08/28 11:03:53;;;;;;;0.60;0.45;;;24.50;58.40;;;;;;5016914;28;20041;-74
2023/08/28 11:06:43;;;;;;;0.70;0.60;;;24.50;58.50;;;;;;5020868;28;20104;-74
2023/08/28 11:09:28;;;;;;;0.40;0.40;;;24.40;58.30;;;;;;5017204;28;20045;-75
2023/08/28 11:12:06;;;;;;;0.50;0.50;;;24.40;58.30;;;;;;5011305;28;20512;-73
2023/08/28 11:14:38;;;;;;;0.77;0.65;;;24.30;58.40;;;;;;5008230;28;20037;-74
2023/08/28 11:17:10;;;;;;;0.40;0.30;;;24.30;58.30;;;;;;5002174;28;20517;-74
2023/08/28 11:19:59;;;;;;;0.70;0.40;;;24.30;58.40;;;;;;5019621;28;20041;-72
2023/08/28 11:22:41;;;;;;;0.40;0.32;;;24.20;58.00;;;;;;5006401;28;20056;-75
2023/08/28 11:25:12;;;;;;;0.38;0.35;;;24.30;58.30;;;;;;5008161;28;20069;-75
2023/08/28 11:27:49;;;;;;;0.82;0.82;;;24.30;58.30;;;;;;5011520;28;20440;-74
2023/08/28 11:30:21;;;;;;;0.73;0.50;;;24.40;58.20;;;;;;5011154;28;20056;-73
2023/08/28 11:32:53;;;;;;;1.80;0.60;;;24.40;58.10;;;;;;5008379;28;20934;-74
2023/08/28 11:35:21;;;;;;;1.10;0.50;;;24.50;58.00;;;;;;5004055;28;20041;-74
2023/08/28 11:37:52;;;;;;;0.30;0.30;;;24.50;57.70;;;;;;5021390;28;20041;-73
2023/08/28 11:40:26;;;;;;;0.55;0.30;;;24.60;57.60;;;;;;5020409;28;20379;-74
2023/08/28 11:43:08;;;;;;;0.77;0.50;;;24.60;58.00;;;;;;5017976;28;20067;-74
2023/08/28 11:45:35;;;;;;;0.68;0.57;;;24.60;57.30;;;;;;5007660;28;20037;-73
2023/08/28 11:48:05;;;;;;;2.00;0.50;;;24.60;57.40;;;;;;5013719;28;20053;-73
2023/08/28 11:50:31;;;;;;;0.40;0.30;;;24.60;57.40;;;;;;5004595;28;20107;-74
2023/08/28 11:52:58;;;;;;;0.50;0.50;;;24.70;57.40;;;;;;4992620;28;20034;-73
2023/08/28 11:55:24;;;;;;;0.65;0.65;;;24.80;57.50;;;;;;5009895;28;20040;-75
2023/08/28 11:57:51;;;;;;;1.55;0.43;;;24.90;57.40;;;;;;4997352;28;20458;-74
2023/08/28 12:00:19;;;;;;;0.40;0.40;;;25.10;57.30;;;;;;5008960;28;20144;-74
2023/08/28 12:02:47;;;;;;;1.45;0.60;;;25.30;56.90;;;;;;5008184;28;20034;-74
2023/08/28 12:05:18;;;;;;;0.98;0.68;;;25.60;56.50;;;;;;5001967;28;20722;-74
2023/08/28 12:07:45;;;;;;;0.35;0.35;;;25.70;56.20;;;;;;5016193;28;20046;-74
2023/08/28 12:10:14;;;;;;;0.45;0.32;;;25.80;55.90;;;;;;5005553;28;20034;-74
2023/08/28 12:12:40;;;;;;;1.00;0.50;;;26.00;55.80;;;;;;5011924;28;20260;-73
2023/08/28 12:15:08;;;;;;;0.68;0.50;;;26.10;55.60;;;;;;5007457;28;20038;-74
2023/08/28 12:17:38;;;;;;;2.28;0.73;;;26.30;55.30;;;;;;5010057;28;20506;-73
2023/08/28 12:20:09;;;;;;;0.85;0.50;;;26.40;54.90;;;;;;5016295;28;20037;-73
2023/08/28 12:22:42;;;;;;;1.48;0.60;;;26.50;54.60;;;;;;5017242;28;20030;-72
2023/08/28 12:25:08;;;;;;;0.93;0.70;;;26.60;54.20;;;;;;5033618;28;20525;-72
2023/08/28 12:27:35;;;;;;;0.65;0.43;;;26.70;54.10;;;;;;5028541;28;20038;-73
2023/08/28 12:30:01;;;;;;;1.77;0.80;;;26.70;53.80;;;;;;5020828;28;20064;-73
2023/08/28 12:32:27;;;;;;;2.33;0.93;;;26.70;53.50;;;;;;5007351;28;20036;-72
2023/08/28 12:34:54;;;;;;;1.73;0.80;;;26.80;53.60;;;;;;5015461;28;20437;-72
2023/08/28 12:37:21;;;;;;;6.50;1.30;;;26.90;53.70;;;;;;5010520;28;20519;-71
2023/08/28 12:39:51;;;;;;;3.08;1.10;;;26.90;53.70;;;;;;4997134;28;20029;-73
2023/08/28 12:42:21;;;;;;;7.72;1.75;;;27.00;54.10;;;;;;5006552;28;20834;-75
2023/08/28 12:44:48;;;;;;;3.15;1.25;;;27.00;54.30;;;;;;5014065;28;20025;-74
2023/08/28 12:47:22;;;;;;;4.55;1.50;;;27.00;54.40;;;;;;5006764;28;20735;-75
2023/08/28 12:49:49;;;;;;;2.47;1.25;;;27.10;54.60;;;;;;5013585;28;20536;-73
2023/08/28 12:52:16;;;;;;;3.03;1.60;;;27.10;54.80;;;;;;5014345;28;20482;-72
2023/08/28 12:54:43;;;;;;;2.40;1.20;;;27.10;55.10;;;;;;5006511;28;20038;-74